createdAt,value
2023-12-16T00:00:59.650Z,5.67
2023-12-16T00:06:02.054Z,5.70
2023-12-16T00:11:03.693Z,5.27
2023-12-16T00:16:05.886Z,5.90
2023-12-16T00:21:07.991Z,5.53
2023-12-16T00:26:09.152Z,4.90
2023-12-16T00:31:10.448Z,6.03
2023-12-16T00:36:11.656Z,4.63
2023-12-16T00:41:12.888Z,4.70
2023-12-16T00:46:14.272Z,4.00
2023-12-16T00:51:15.644Z,4.27
2023-12-16T00:56:16.839Z,4.47
2023-12-16T01:01:18.013Z,4.23
2023-12-16T01:06:19.174Z,4.07
2023-12-16T01:11:20.320Z,5.07
2023-12-16T01:16:21.570Z,4.00
2023-12-16T01:21:22.860Z,4.43
2023-12-16T01:26:23.981Z,3.93
2023-12-16T01:31:25.218Z,4.03
2023-12-16T01:36:26.440Z,3.47
2023-12-16T01:41:27.637Z,3.50
2023-12-16T01:46:29.262Z,4.37
2023-12-16T01:51:31.693Z,4.60
2023-12-16T01:56:33.724Z,4.17
2023-12-16T02:01:35.290Z,4.50
2023-12-16T02:06:40.292Z,4.77
2023-12-16T02:11:41.480Z,5.10
2023-12-16T02:16:42.741Z,4.70
2023-12-16T02:21:43.970Z,4.63
2023-12-16T02:26:45.118Z,4.17
2023-12-16T02:31:46.401Z,5.37
2023-12-16T02:36:47.697Z,4.70
2023-12-16T02:41:48.948Z,5.00
2023-12-16T02:46:50.088Z,5.40
2023-12-16T02:51:51.352Z,5.70
2023-12-16T02:56:52.498Z,4.13
2023-12-16T03:01:53.736Z,5.90
2023-12-16T03:06:54.921Z,5.00
2023-12-16T03:11:56.111Z,4.40
2023-12-16T03:16:57.863Z,5.93
2023-12-16T03:21:59.099Z,4.67
2023-12-16T03:27:00.307Z,5.10
2023-12-16T03:32:02.073Z,4.90
2023-12-16T03:37:03.993Z,4.80
2023-12-16T03:42:05.179Z,4.87
2023-12-16T03:47:06.299Z,4.63
2023-12-16T03:52:08.049Z,4.40
2023-12-16T03:57:09.339Z,5.90
2023-12-16T04:02:10.498Z,4.20
2023-12-16T04:07:12.126Z,4.63
2023-12-16T04:12:13.630Z,5.80
2023-12-16T04:17:14.780Z,4.67
2023-12-16T04:22:15.995Z,3.70
2023-12-16T04:27:17.220Z,3.97
2023-12-16T04:32:18.550Z,3.53
2023-12-16T04:37:19.682Z,3.50
2023-12-16T04:42:20.856Z,4.40
2023-12-16T04:47:22.192Z,3.40
2023-12-16T04:52:23.388Z,4.93
2023-12-16T04:57:24.912Z,3.57
2023-12-16T05:02:26.013Z,3.80
2023-12-16T05:07:27.206Z,3.73
2023-12-16T05:12:35.514Z,3.23
2023-12-16T05:17:37.914Z,4.37
2023-12-16T05:22:39.380Z,3.60
2023-12-16T05:27:40.714Z,3.30
2023-12-16T05:32:42.138Z,3.40
2023-12-16T05:37:43.339Z,3.70
2023-12-16T05:42:44.465Z,3.30
2023-12-16T05:47:45.849Z,3.10
2023-12-16T05:52:47.042Z,3.60
2023-12-16T05:57:48.163Z,3.00
2023-12-16T06:02:49.475Z,3.20
2023-12-16T06:07:50.617Z,3.13
2023-12-16T06:12:51.815Z,3.27
2023-12-16T06:17:53.215Z,3.30
2023-12-16T06:22:54.526Z,3.00
2023-12-16T06:27:55.818Z,3.43
2023-12-16T06:32:57.126Z,3.03
2023-12-16T06:37:58.390Z,3.33
2023-12-16T06:42:59.692Z,2.87
2023-12-16T06:48:01.929Z,3.13
2023-12-16T06:53:03.241Z,3.10
2023-12-16T06:58:05.134Z,3.10
2023-12-16T07:03:06.327Z,3.00
2023-12-16T07:08:07.899Z,3.10
2023-12-16T07:13:09.210Z,3.33
2023-12-16T07:18:10.889Z,3.77
2023-12-16T07:23:12.059Z,2.93
2023-12-16T07:28:13.859Z,3.63
2023-12-16T07:33:15.106Z,3.37
2023-12-16T07:38:16.445Z,3.77
2023-12-16T07:43:17.754Z,3.93
2023-12-16T07:48:19.111Z,3.70
2023-12-16T07:53:21.677Z,2.60
2023-12-16T07:58:22.855Z,2.77
2023-12-16T08:03:27.488Z,2.90
2023-12-16T08:08:28.915Z,3.57
2023-12-16T08:13:30.149Z,3.67
2023-12-16T08:18:32.214Z,2.90
2023-12-16T08:23:33.482Z,3.63
2023-12-16T08:28:37.246Z,3.53
2023-12-16T08:33:38.560Z,3.90
2023-12-16T08:38:39.695Z,3.50
2023-12-16T08:43:43.384Z,3.30
2023-12-16T08:48:44.518Z,3.70
2023-12-16T08:53:45.630Z,3.40
2023-12-16T08:58:46.816Z,3.93
2023-12-16T09:03:48.051Z,3.93
2023-12-16T09:08:54.832Z,3.73
2023-12-16T09:13:56.029Z,3.60
2023-12-16T09:18:57.341Z,3.67
2023-12-16T09:23:58.538Z,3.50
2023-12-16T09:29:01.343Z,3.73
2023-12-16T09:34:02.887Z,3.60
2023-12-16T09:39:04.493Z,4.07
2023-12-16T09:44:08.013Z,3.93
2023-12-16T09:49:09.251Z,3.50
2023-12-16T09:54:10.506Z,3.83
2023-12-16T09:59:13.434Z,4.30
2023-12-16T10:04:14.923Z,4.00
2023-12-16T10:09:19.511Z,4.73
2023-12-16T10:14:20.792Z,3.43
2023-12-16T10:19:22.135Z,4.20
2023-12-16T10:24:23.437Z,4.33
2023-12-16T10:29:25.526Z,3.87
2023-12-16T10:34:30.173Z,3.87
2023-12-16T10:39:32.443Z,4.87
2023-12-16T10:44:33.649Z,4.37
2023-12-16T10:49:38.806Z,4.10
2023-12-16T10:54:41.443Z,4.23
2023-12-16T10:59:45.952Z,3.47
2023-12-16T11:04:51.514Z,4.10
2023-12-16T11:09:53.309Z,4.80
2023-12-16T11:14:55.572Z,4.67
2023-12-16T11:20:01.723Z,4.23
2023-12-16T11:25:04.698Z,4.20
2023-12-16T11:30:06.761Z,4.97
2023-12-16T11:35:08.792Z,4.93
2023-12-16T11:40:48.896Z,4.63
2023-12-16T11:45:50.134Z,4.87
2023-12-16T11:50:51.313Z,5.07
2023-12-16T11:55:52.451Z,5.37
2023-12-16T12:00:53.772Z,5.40
2023-12-16T12:05:55.443Z,5.93
2023-12-16T12:10:58.307Z,6.10
2023-12-16T12:15:59.640Z,5.57
2023-12-16T12:21:02.130Z,6.30
2023-12-16T12:26:04.672Z,6.73
2023-12-16T12:31:07.621Z,6.67
2023-12-16T12:36:10.297Z,7.87
2023-12-16T12:41:16.090Z,7.60
2023-12-16T12:46:17.526Z,7.77
2023-12-16T12:51:18.825Z,9.13
2023-12-16T12:56:19.932Z,7.57
2023-12-16T13:01:21.170Z,8.67
2023-12-16T13:06:22.440Z,7.93
2023-12-16T13:11:23.726Z,8.20
2023-12-16T13:16:26.015Z,8.83
2023-12-16T13:21:27.233Z,8.40
2023-12-16T13:26:28.373Z,8.97
2023-12-16T13:31:29.544Z,7.90
2023-12-16T13:36:34.657Z,7.93
2023-12-16T13:41:51.172Z,7.60
2023-12-16T13:46:52.337Z,8.17
2023-12-16T13:51:53.520Z,7.10
2023-12-16T13:56:54.771Z,7.87
2023-12-16T14:01:55.936Z,7.30
2023-12-16T14:06:57.523Z,6.83
2023-12-16T14:11:58.690Z,6.37
2023-12-16T14:16:59.875Z,7.03
2023-12-16T14:22:01.779Z,6.03
2023-12-16T14:27:03.178Z,6.07
2023-12-16T14:32:04.840Z,5.97
2023-12-16T14:37:06.126Z,5.50
2023-12-16T14:42:09.998Z,5.70
2023-12-16T14:47:11.147Z,6.67
2023-12-16T14:52:12.254Z,6.50
2023-12-16T14:57:13.455Z,6.07
2023-12-16T15:02:14.602Z,7.50
2023-12-16T15:07:15.973Z,5.90
2023-12-16T15:12:17.647Z,6.13
2023-12-16T15:17:18.817Z,6.17
2023-12-16T15:22:19.970Z,4.97
2023-12-16T15:27:21.053Z,5.67
2023-12-16T15:32:22.211Z,5.30
2023-12-16T15:37:23.312Z,5.87
2023-12-16T15:42:24.451Z,6.00
2023-12-16T15:47:26.868Z,5.90
2023-12-16T15:52:29.920Z,6.23
2023-12-16T15:57:31.089Z,5.73
2023-12-16T16:02:32.236Z,5.63
2023-12-16T16:07:33.435Z,5.00
2023-12-16T16:12:34.588Z,5.73
2023-12-16T16:17:35.814Z,5.30
2023-12-16T16:22:37.072Z,4.53
2023-12-16T16:27:39.526Z,5.37
2023-12-16T16:32:41.237Z,7.00
2023-12-16T16:37:42.755Z,5.97
2023-12-16T16:42:43.984Z,5.70
2023-12-16T16:47:45.911Z,6.00
2023-12-16T16:52:47.489Z,5.97
2023-12-16T16:57:48.840Z,6.10
2023-12-16T17:02:50.580Z,5.07
2023-12-16T17:07:52.175Z,5.67
2023-12-16T17:12:53.298Z,5.97
2023-12-16T17:17:54.520Z,6.90
2023-12-16T17:22:56.018Z,6.50
2023-12-16T17:27:57.556Z,6.10
2023-12-16T17:32:58.971Z,6.57
2023-12-16T17:38:00.828Z,6.70
2023-12-16T17:43:02.770Z,7.47
2023-12-16T17:48:05.184Z,7.37
2023-12-16T17:53:07.805Z,7.87
2023-12-16T17:58:09.295Z,7.70
2023-12-16T18:03:10.865Z,6.90
2023-12-16T18:08:12.408Z,7.63
2023-12-16T18:13:13.628Z,7.37
2023-12-16T18:18:14.952Z,7.50
2023-12-16T18:23:16.724Z,7.27
2023-12-16T18:28:17.941Z,9.07
2023-12-16T18:33:19.454Z,8.73
2023-12-16T18:38:20.867Z,9.53
2023-12-16T18:43:22.965Z,9.53
2023-12-16T18:48:24.256Z,9.80
2023-12-16T18:53:25.442Z,10.07
2023-12-16T18:58:26.974Z,9.43
2023-12-16T19:03:28.355Z,9.80
2023-12-16T19:08:30.167Z,9.13
2023-12-16T19:13:31.298Z,9.47
2023-12-16T19:18:33.369Z,9.00
2023-12-16T19:23:34.566Z,9.57
2023-12-16T19:28:35.740Z,9.90
2023-12-16T19:33:39.549Z,9.50
2023-12-16T19:38:40.894Z,9.17
2023-12-16T19:43:42.070Z,8.93
2023-12-16T19:48:43.598Z,9.53
2023-12-16T19:53:45.868Z,9.57
2023-12-16T19:58:47.009Z,10.30
2023-12-16T20:03:48.837Z,10.23
2023-12-16T20:08:50.100Z,9.57
2023-12-16T20:13:51.513Z,10.40
2023-12-16T20:18:52.873Z,9.17
2023-12-16T20:23:54.182Z,9.73
2023-12-16T20:28:55.580Z,9.27
2023-12-16T20:33:57.437Z,9.63
2023-12-16T20:39:17.476Z,10.93
2023-12-16T20:44:18.931Z,10.23
2023-12-16T20:49:20.369Z,11.00
2023-12-16T20:54:21.664Z,11.33
2023-12-16T20:59:22.878Z,11.70
2023-12-16T21:04:24.176Z,11.27
2023-12-16T21:09:25.301Z,10.57
2023-12-16T21:14:26.481Z,11.30
2023-12-16T21:19:27.665Z,11.37
2023-12-16T21:24:28.903Z,10.77
2023-12-16T21:29:30.133Z,11.87
2023-12-16T21:34:31.462Z,12.43
2023-12-16T21:39:33.960Z,11.33
2023-12-16T21:44:35.887Z,12.80
2023-12-16T21:49:37.097Z,13.70
2023-12-16T21:54:38.268Z,12.83
2023-12-16T21:59:39.415Z,13.33
2023-12-16T22:04:41.284Z,12.17
2023-12-16T22:09:42.666Z,13.37
2023-12-16T22:14:43.968Z,13.47
2023-12-16T22:19:57.754Z,14.97
2023-12-16T22:24:58.978Z,13.23
2023-12-16T22:30:01.921Z,14.50
2023-12-16T22:35:03.280Z,13.90
2023-12-16T22:40:04.956Z,14.63
2023-12-16T22:45:07.448Z,14.03
2023-12-16T22:50:09.163Z,15.23
2023-12-16T22:55:10.702Z,14.70
2023-12-16T23:00:27.461Z,14.73
2023-12-16T23:05:28.787Z,15.03
2023-12-16T23:10:29.948Z,14.97
2023-12-16T23:15:31.148Z,14.93
2023-12-16T23:20:32.275Z,15.47
2023-12-16T23:25:33.498Z,15.13
2023-12-16T23:30:34.788Z,15.53
2023-12-16T23:35:35.972Z,14.57
2023-12-16T23:40:37.147Z,14.93
2023-12-16T23:45:38.288Z,14.77
2023-12-16T23:50:39.448Z,14.97
2023-12-16T23:55:40.625Z,15.17
